createdAt,value
2022-12-04T05:11:20.081Z,9.90
2022-12-04T05:26:24.796Z,10.00
2022-12-04T05:41:29.205Z,10.20
2022-12-04T05:56:33.595Z,9.90
2022-12-04T06:11:40.110Z,10.20
2022-12-04T06:27:11.178Z,10.40
2022-12-04T06:42:09.636Z,10.20
2022-12-04T06:57:14.055Z,9.70
2022-12-04T07:12:18.575Z,10.10
2022-12-04T07:27:23.029Z,10.10
2022-12-04T07:42:27.424Z,10.10
2022-12-04T07:57:31.850Z,10.20
2022-12-04T08:12:36.523Z,10.20
2022-12-04T08:27:47.713Z,10.40
2022-12-04T08:42:52.207Z,10.40
2022-12-04T08:57:56.619Z,10.50
2022-12-04T09:13:01.137Z,10.70
2022-12-04T09:28:06.098Z,10.30
2022-12-04T09:43:20.634Z,10.60
2022-12-04T09:58:29.488Z,10.50
2022-12-04T10:14:06.557Z,10.70
2022-12-04T10:29:20.432Z,10.60
2022-12-04T10:44:25.038Z,10.70
2022-12-04T10:59:30.366Z,10.60
2022-12-04T11:14:34.798Z,10.50
2022-12-04T11:29:43.812Z,10.60
2022-12-04T11:44:56.525Z,10.80
2022-12-04T12:00:13.786Z,10.80
2022-12-04T12:15:28.132Z,11.00
2022-12-04T12:30:39.089Z,11.00
2022-12-04T12:45:48.938Z,10.90
2022-12-04T13:00:59.410Z,10.50
2022-12-04T13:16:10.895Z,10.80
2022-12-04T13:31:25.437Z,11.00
2022-12-04T13:46:34.415Z,10.90
2022-12-04T14:01:42.082Z,11.10
2022-12-04T14:16:50.550Z,11.00
2022-12-04T14:31:56.139Z,11.00
2022-12-04T14:47:10.754Z,10.70
2022-12-04T15:02:21.895Z,10.80
2022-12-04T15:17:26.262Z,10.90
2022-12-04T15:32:32.102Z,11.00
2022-12-04T15:47:50.728Z,10.50
2022-12-04T16:02:55.814Z,10.90
2022-12-04T16:18:01.652Z,11.00
2022-12-04T16:33:06.477Z,11.00
2022-12-04T16:48:11.464Z,10.90
2022-12-04T17:03:19.607Z,10.80
2022-12-04T17:18:24.062Z,10.90
2022-12-04T17:33:28.561Z,10.90
2022-12-04T17:48:32.915Z,10.70
2022-12-04T18:03:38.670Z,10.80
2022-12-04T18:18:46.596Z,10.60
2022-12-04T18:33:51.672Z,10.80
2022-12-04T18:48:58.791Z,10.80
2022-12-04T19:04:06.042Z,10.80
2022-12-04T19:19:12.120Z,10.70
2022-12-04T19:34:16.636Z,10.50
2022-12-04T19:49:21.097Z,10.90
2022-12-04T20:04:25.627Z,10.80
2022-12-04T20:19:30.053Z,10.90
2022-12-04T20:34:38.773Z,10.90
2022-12-04T20:49:46.231Z,10.90
2022-12-04T21:04:50.712Z,10.70
